Time;durP1;ratioP1;P1;durP2;ratioP2;P2;SDS_P1;SDS_P2;PMS_P1;PMS_P2;Temp;Humidity;BMP_temperature;BMP_pressure;BME280_temperature;BME280_humidity;BME280_pressure;Samples;Min_cycle;Max_cycle;Signal;HPM_P1;HPM_P2
2023/10/17 00:00:27;;;;;;;10.93;7.78;;;6.80;99.90;;;;;;6151508;23;20013;-82
2023/10/17 00:02:53;;;;;;;9.60;7.82;;;6.70;99.90;;;;;;6175655;23;20024;-82
2023/10/17 00:05:20;;;;;;;9.02;7.32;;;6.70;99.90;;;;;;6176906;23;20009;-82
2023/10/17 00:07:46;;;;;;;10.05;6.55;;;6.60;99.90;;;;;;6176891;23;20086;-82
2023/10/17 00:10:18;;;;;;;15.18;7.65;;;6.60;99.90;;;;;;6150396;23;20025;-82
2023/10/17 00:13:08;;;;;;;7.80;6.07;;;6.50;99.90;;;;;;6175657;23;20016;-82
2023/10/17 00:15:35;;;;;;;16.10;7.70;;;6.30;99.90;;;;;;6176625;23;20034;-82
2023/10/17 00:18:11;;;;;;;38.60;8.73;;;6.40;99.90;;;;;;6176565;23;20009;-81
2023/10/17 00:20:37;;;;;;;9.48;7.05;;;6.40;99.90;;;;;;6176331;23;20346;-82
2023/10/17 00:23:07;;;;;;;11.55;7.05;;;6.30;99.90;;;;;;6151849;23;20024;-81
2023/10/17 00:25:33;;;;;;;8.02;5.80;;;6.30;99.90;;;;;;6151927;23;20024;-81
2023/10/17 00:27:59;;;;;;;9.45;7.05;;;6.30;99.90;;;;;;6175924;23;20025;-82
2023/10/17 00:30:29;;;;;;;8.30;6.70;;;6.20;99.90;;;;;;6151033;23;20017;-82
2023/10/17 00:32:55;;;;;;;6.53;5.13;;;6.10;99.90;;;;;;6176894;23;20541;-82
2023/10/17 00:35:25;;;;;;;8.23;6.10;;;6.10;99.90;;;;;;6176616;23;20068;-82
2023/10/17 00:37:57;;;;;;;8.68;6.25;;;6.10;99.90;;;;;;6177087;23;20438;-81
2023/10/17 00:40:34;;;;;;;9.85;7.00;;;6.20;99.90;;;;;;6174927;23;20020;-81
2023/10/17 00:43:11;;;;;;;7.85;6.68;;;6.20;99.90;;;;;;6150166;23;20009;-82
2023/10/17 00:45:38;;;;;;;8.90;6.93;;;6.20;99.90;;;;;;6151735;23;20008;-82
2023/10/17 00:48:08;;;;;;;101.05;12.60;;;6.30;99.90;;;;;;6176288;23;20551;-81
2023/10/17 00:50:36;;;;;;;9.45;6.68;;;6.30;99.90;;;;;;6176541;23;20418;-81
2023/10/17 00:53:03;;;;;;;9.38;6.97;;;6.30;99.90;;;;;;6152260;23;20383;-82
2023/10/17 00:55:29;;;;;;;8.90;6.22;;;6.40;99.90;;;;;;6150725;23;20469;-81
2023/10/17 00:57:56;;;;;;;6.53;5.88;;;6.50;99.90;;;;;;6176407;23;20088;-82
2023/10/17 01:00:35;;;;;;;6.22;5.47;;;6.40;99.90;;;;;;6176578;23;20021;-81
2023/10/17 01:03:08;;;;;;;6.45;5.85;;;6.40;99.90;;;;;;6152332;23;20020;-81
2023/10/17 01:05:56;;;;;;;6.95;6.05;;;6.50;99.90;;;;;;6153922;23;20016;-82
2023/10/17 01:08:39;;;;;;;7.55;5.60;;;6.50;99.90;;;;;;6153575;23;20047;-82
2023/10/17 01:11:11;;;;;;;6.72;5.47;;;6.50;99.90;;;;;;6178385;23;20383;-82
2023/10/17 01:13:37;;;;;;;6.68;5.40;;;6.60;99.90;;;;;;6153030;23;20097;-81
2023/10/17 01:16:08;;;;;;;7.55;5.65;;;6.60;99.90;;;;;;6153256;23;20016;-82
2023/10/17 01:18:34;;;;;;;7.93;5.53;;;6.60;99.90;;;;;;6153511;23;20024;-82
2023/10/17 01:21:00;;;;;;;8.55;5.60;;;6.70;99.90;;;;;;6152450;23;20446;-81
2023/10/17 01:23:29;;;;;;;11.18;5.95;;;6.60;99.90;;;;;;6152963;23;20019;-82
2023/10/17 01:25:56;;;;;;;6.60;5.72;;;6.60;99.90;;;;;;6153142;23;20008;-81
2023/10/17 01:28:22;;;;;;;5.82;5.13;;;6.60;99.90;;;;;;6153223;23;20012;-82
2023/10/17 01:30:52;;;;;;;7.28;5.60;;;6.60;99.90;;;;;;6178454;23;20047;-81
2023/10/17 01:33:18;;;;;;;7.82;5.75;;;6.60;99.90;;;;;;6153873;23;20067;-81
2023/10/17 01:35:44;;;;;;;8.63;5.43;;;6.70;99.90;;;;;;6177796;23;20367;-82
2023/10/17 01:38:11;;;;;;;9.15;5.50;;;6.70;99.90;;;;;;6152290;23;20395;-82
2023/10/17 01:40:37;;;;;;;11.05;6.07;;;6.70;99.90;;;;;;6176869;23;20076;-82
2023/10/17 01:43:03;;;;;;;13.57;6.03;;;6.70;99.90;;;;;;6152764;23;20059;-82
2023/10/17 01:45:37;;;;;;;6.97;5.57;;;6.70;99.90;;;;;;6152967;23;20468;-81
2023/10/17 01:48:04;;;;;;;6.72;5.43;;;6.70;99.90;;;;;;6153123;23;20035;-82
2023/10/17 01:50:30;;;;;;;7.78;5.47;;;6.70;99.90;;;;;;6152715;23;20021;-82
2023/10/17 01:52:59;;;;;;;6.97;5.70;;;6.70;99.90;;;;;;6178163;23;20020;-82
2023/10/17 01:55:27;;;;;;;9.90;5.35;;;6.70;99.90;;;;;;6176491;23;20096;-81
2023/10/17 01:57:59;;;;;;;9.55;6.57;;;6.70;99.90;;;;;;6177295;23;20120;-81
2023/10/17 02:03:00;;;;;;;;;;;6.60;99.90;;;;;;6178452;23;20028;-81
2023/10/17 02:05:29;;;;;;;71.93;7.93;;;6.40;99.90;;;;;;6177633;23;19915;-81
2023/10/17 02:07:55;;;;;;;7.30;5.32;;;6.40;99.90;;;;;;6177370;23;20017;-81
2023/10/17 02:10:21;;;;;;;8.57;5.50;;;6.50;99.90;;;;;;6176929;23;20450;-82
2023/10/17 02:12:48;;;;;;;25.48;6.07;;;6.40;99.90;;;;;;6177281;23;20104;-82
2023/10/17 02:15:19;;;;;;;221.75;13.23;;;6.40;99.90;;;;;;6177101;23;20320;-81
2023/10/17 02:17:48;;;;;;;26.08;6.18;;;6.20;99.90;;;;;;6177478;23;20370;-82
2023/10/17 02:20:30;;;;;;;7.05;4.90;;;6.00;99.90;;;;;;6177255;23;20027;-82
2023/10/17 02:23:01;;;;;;;9.52;6.10;;;6.10;99.90;;;;;;6177482;23;20040;-81
2023/10/17 02:25:34;;;;;;;8.23;5.30;;;6.10;99.90;;;;;;6176961;23;20059;-81
2023/10/17 02:28:00;;;;;;;11.48;5.82;;;6.00;99.90;;;;;;6176429;23;20225;-81
2023/10/17 02:30:26;;;;;;;8.02;5.55;;;6.10;99.90;;;;;;6177790;23;20021;-81
2023/10/17 02:32:53;;;;;;;9.90;6.40;;;6.00;99.90;;;;;;6177254;23;20031;-81
2023/10/17 02:35:43;;;;;;;8.73;5.78;;;6.00;99.90;;;;;;6176975;23;21032;-82
2023/10/17 02:38:09;;;;;;;91.63;8.98;;;6.00;99.90;;;;;;6176755;23;20013;-81
2023/10/17 02:40:38;;;;;;;19.00;6.07;;;5.80;99.90;;;;;;6176703;23;20100;-81
2023/10/17 02:43:04;;;;;;;9.38;5.93;;;5.80;99.90;;;;;;6152287;23;20024;-81
2023/10/17 02:45:29;;;;;;;96.20;9.25;;;5.80;99.90;;;;;;6152519;23;20020;-82
2023/10/17 02:47:57;;;;;;;117.32;9.13;;;5.70;99.90;;;;;;6176793;23;20470;-81
2023/10/17 02:50:42;;;;;;;31.48;6.25;;;5.70;99.90;;;;;;6201917;23;20535;-81
2023/10/17 02:53:14;;;;;;;17.52;4.95;;;5.70;99.90;;;;;;6152643;23;20021;-81
2023/10/17 02:55:40;;;;;;;31.35;7.45;;;5.70;99.90;;;;;;6175619;23;20461;-81
2023/10/17 02:58:05;;;;;;;8.40;5.38;;;5.60;99.90;;;;;;6176552;23;20373;-82
2023/10/17 03:00:34;;;;;;;11.25;6.43;;;5.70;99.90;;;;;;6152408;23;20034;-81
2023/10/17 03:03:00;;;;;;;140.45;8.82;;;5.60;99.90;;;;;;6152048;23;20012;-82
2023/10/17 03:05:27;;;;;;;31.88;7.50;;;5.50;99.90;;;;;;6152038;23;20075;-81
2023/10/17 03:07:53;;;;;;;9.88;5.32;;;5.60;99.90;;;;;;6177391;23;20099;-82
2023/10/17 03:10:20;;;;;;;6.40;5.35;;;5.50;99.90;;;;;;6150925;23;20040;-81
2023/10/17 03:13:01;;;;;;;7.28;5.50;;;5.50;99.90;;;;;;6176171;23;20016;-81
2023/10/17 03:15:29;;;;;;;8.77;6.20;;;5.40;99.90;;;;;;6177014;23;20083;-81
2023/10/17 03:18:00;;;;;;;8.43;6.25;;;5.40;99.90;;;;;;6151198;23;20013;-81
2023/10/17 03:20:36;;;;;;;63.58;6.50;;;5.40;99.90;;;;;;6176136;23;20017;-81
2023/10/17 03:23:09;;;;;;;114.53;7.57;;;5.30;99.90;;;;;;6176779;23;20123;-82
2023/10/17 03:25:39;;;;;;;68.00;6.07;;;5.30;99.90;;;;;;6175411;23;20119;-82
2023/10/17 03:28:13;;;;;;;6.95;5.15;;;5.30;99.90;;;;;;6175613;23;20115;-81
2023/10/17 03:30:39;;;;;;;5.53;4.33;;;5.20;99.90;;;;;;6177184;23;20056;-82
2023/10/17 03:33:09;;;;;;;7.70;5.65;;;5.20;99.90;;;;;;6151508;23;20247;-82
2023/10/17 03:38:23;;;;;;;11.40;6.65;;;5.30;99.90;;;;;;6176202;23;20020;-81
2023/10/17 03:40:53;;;;;;;7.32;5.88;;;5.10;99.90;;;;;;6175144;23;20334;-81
2023/10/17 03:43:22;;;;;;;8.25;4.97;;;5.10;99.90;;;;;;6176537;23;20024;-81
2023/10/17 03:45:57;;;;;;;7.03;5.68;;;5.20;99.90;;;;;;6151541;23;20092;-81
2023/10/17 03:48:29;;;;;;;9.10;4.45;;;5.10;99.90;;;;;;6176268;23;20036;-82
2023/10/17 03:53:29;;;;;;;6.68;5.65;;;5.10;99.90;;;;;;6176643;23;20021;-82
2023/10/17 03:56:01;;;;;;;8.95;5.95;;;5.00;99.90;;;;;;6151262;23;20441;-81
2023/10/17 04:00:57;;;;;;;8.23;5.20;;;5.00;99.90;;;;;;6176001;23;20096;-81
2023/10/17 04:08:40;;;;;;;6.53;5.05;;;5.10;99.90;;;;;;6175296;23;20020;-81
2023/10/17 04:13:52;;;;;;;6.13;4.45;;;5.10;99.90;;;;;;6174665;23;20115;-81
2023/10/17 04:16:22;;;;;;;6.72;4.70;;;5.10;99.90;;;;;;6151833;23;20024;-81
2023/10/17 04:19:00;;;;;;;5.00;4.38;;;5.20;99.90;;;;;;6176208;23;20047;-81
2023/10/17 04:21:36;;;;;;;6.97;4.88;;;5.20;99.90;;;;;;6176808;23;20013;-81
2023/10/17 04:24:05;;;;;;;5.22;4.60;;;5.30;99.90;;;;;;6175671;23;20077;-82
2023/10/17 04:26:35;;;;;;;10.40;5.82;;;5.30;99.90;;;;;;6175281;23;20552;-82
2023/10/17 04:29:11;;;;;;;7.10;4.93;;;5.40;99.90;;;;;;6174622;23;20023;-82
2023/10/17 04:31:43;;;;;;;7.47;4.70;;;5.40;99.90;;;;;;6175989;23;20462;-82
2023/10/17 04:34:14;;;;;;;6.63;4.70;;;5.40;99.90;;;;;;6150306;23;20025;-82
2023/10/17 04:36:41;;;;;;;12.13;5.55;;;5.30;99.90;;;;;;6177124;23;20008;-82
2023/10/17 04:44:34;;;;;;;5.47;4.63;;;5.30;99.90;;;;;;6177024;23;20027;-82
2023/10/17 04:49:32;;;;;;;5.82;4.45;;;5.30;99.90;;;;;;6177416;23;20020;-82
2023/10/17 04:52:13;;;;;;;152.45;10.07;;;5.30;99.90;;;;;;6154120;23;20039;-81
2023/10/17 04:54:43;;;;;;;348.85;16.88;;;5.20;99.90;;;;;;6176840;23;20091;-81
2023/10/17 04:57:09;;;;;;;126.10;9.85;;;5.20;99.90;;;;;;6177802;23;20013;-81
2023/10/17 05:07:30;;;;;;;6.90;3.80;;;5.10;99.90;;;;;;6178753;23;20233;-82
2023/10/17 06:18:31;;;;;;;4.75;3.25;;;6.80;99.90;;;;;;6148093;23;20096;-82
2023/10/17 06:34:14;;;;;;;7.03;3.50;;;7.20;99.90;;;;;;6177660;23;20102;-82
2023/10/17 06:36:41;;;;;;;5.22;3.45;;;7.20;99.90;;;;;;6153013;23;20017;-82
2023/10/17 06:39:17;;;;;;;7.18;3.75;;;7.30;99.90;;;;;;6176304;23;20442;-82
2023/10/17 06:41:47;;;;;;;8.05;3.80;;;7.40;99.90;;;;;;6151721;23;20489;-81
2023/10/17 06:44:21;;;;;;;7.18;4.18;;;7.40;99.90;;;;;;6176678;23;20016;-82
2023/10/17 06:46:56;;;;;;;5.07;3.83;;;7.60;99.90;;;;;;6177230;23;20477;-82
2023/10/17 06:54:42;;;;;;;6.75;4.00;;;7.80;99.90;;;;;;6176011;23;20465;-82
2023/10/17 06:57:24;;;;;;;9.60;4.32;;;7.80;99.90;;;;;;6152052;23;20091;-82
2023/10/17 06:59:51;;;;;;;6.43;4.57;;;7.90;99.90;;;;;;6176684;23;20012;-82
2023/10/17 07:02:41;;;;;;;9.57;4.88;;;8.10;99.90;;;;;;6151639;23;20079;-82
2023/10/17 07:05:08;;;;;;;9.20;4.65;;;8.10;99.90;;;;;;6151025;23;20025;-82
2023/10/17 07:07:41;;;;;;;7.38;4.45;;;8.30;99.90;;;;;;6177723;23;20019;-82
2023/10/17 07:13:32;;;;;;;6.90;4.93;;;8.40;99.90;;;;;;6176083;23;20091;-82
2023/10/17 07:16:12;;;;;;;8.25;4.55;;;8.50;99.90;;;;;;6152342;23;20020;-82
2023/10/17 07:23:41;;;;;;;11.80;5.70;;;8.70;99.90;;;;;;6176491;23;20488;-82
2023/10/17 07:26:13;;;;;;;8.02;5.20;;;8.90;99.90;;;;;;6176381;23;20016;-82
2023/10/17 07:28:42;;;;;;;9.15;5.40;;;8.90;99.90;;;;;;6151416;23;20020;-82
2023/10/17 07:31:12;;;;;;;9.70;5.85;;;9.00;99.90;;;;;;6176361;23;20050;-82
2023/10/17 07:33:41;;;;;;;10.85;6.00;;;9.10;99.90;;;;;;6177328;23;20012;-82
2023/10/17 07:36:16;;;;;;;9.35;6.05;;;9.10;99.90;;;;;;6176284;23;20016;-82
2023/10/17 07:38:45;;;;;;;;;;;9.20;99.90;;;;;;6151504;23;20025;-82
2023/10/17 07:41:14;;;;;;;8.73;5.68;;;9.30;99.90;;;;;;6150732;23;19922;-83
2023/10/17 07:43:46;;;;;;;12.15;6.32;;;9.50;99.90;;;;;;6176398;23;20059;-82
2023/10/17 07:46:19;;;;;;;11.80;6.25;;;9.50;99.90;;;;;;6152022;23;20418;-83
2023/10/17 07:48:48;;;;;;;12.48;6.22;;;9.60;99.90;;;;;;6176963;23;20152;-82
2023/10/17 07:51:15;;;;;;;11.25;6.80;;;9.70;99.90;;;;;;6151693;23;20405;-83
2023/10/17 07:53:47;;;;;;;10.50;7.05;;;9.70;99.90;;;;;;6175904;23;20303;-82
2023/10/17 07:56:37;;;;;;;12.13;7.75;;;9.90;99.90;;;;;;6151835;23;20013;-83
2023/10/17 07:59:15;;;;;;;15.55;7.45;;;10.00;99.90;;;;;;6150602;23;20043;-82
2023/10/17 08:01:49;;;;;;;12.80;6.97;;;10.10;99.90;;;;;;6152036;23;20240;-82
2023/10/17 08:04:23;;;;;;;11.82;7.18;;;10.30;99.90;;;;;;6176294;23;20406;-82
2023/10/17 08:06:50;;;;;;;9.97;6.17;;;10.30;99.90;;;;;;6152666;23;20017;-82
2023/10/17 08:11:53;;;;;;;10.02;6.30;;;10.50;99.90;;;;;;6175850;23;20017;-83
2023/10/17 08:14:34;;;;;;;11.45;6.60;;;10.30;99.90;;;;;;6151721;23;20051;-83
2023/10/17 08:17:00;;;;;;;11.07;6.95;;;10.40;99.90;;;;;;6150952;23;20035;-82
2023/10/17 08:19:29;;;;;;;8.75;6.22;;;10.50;99.90;;;;;;6151838;23;20013;-82
2023/10/17 08:24:40;;;;;;;9.35;5.88;;;10.60;99.90;;;;;;6175198;23;20021;-82
2023/10/17 08:30:01;;;;;;;9.93;6.25;;;10.80;99.90;;;;;;6152927;23;20230;-83
2023/10/17 08:37:43;;;;;;;16.80;7.97;;;10.90;99.90;;;;;;6177221;23;20069;-82
2023/10/17 08:43:01;;;;;;;10.25;6.03;;;10.70;99.90;;;;;;6176203;23;20027;-82
2023/10/17 08:45:28;;;;;;;12.38;6.07;;;10.70;99.90;;;;;;6152420;23;20481;-83
2023/10/17 08:48:00;;;;;;;9.45;5.18;;;10.70;99.90;;;;;;6176538;23;20016;-83
2023/10/17 08:50:37;;;;;;;5.57;4.20;;;10.90;99.90;;;;;;6177595;23;20019;-82
2023/10/17 08:53:09;;;;;;;7.15;3.75;;;10.70;99.90;;;;;;6177270;23;20009;-82
2023/10/17 08:55:40;;;;;;;7.78;3.40;;;10.70;99.90;;;;;;6176289;23;20009;-82
2023/10/17 08:58:09;;;;;;;5.82;3.53;;;10.70;99.90;;;;;;6176544;23;20009;-82
2023/10/17 09:00:48;;;;;;;7.40;3.22;;;10.80;99.90;;;;;;6152406;23;20012;-82
2023/10/17 09:03:36;;;;;;;6.07;3.03;;;10.80;99.90;;;;;;6153383;23;20017;-82
2023/10/17 09:08:55;;;;;;;4.68;2.53;;;10.60;99.90;;;;;;6177090;23;20025;-82
2023/10/17 09:11:30;;;;;;;5.47;2.40;;;10.70;99.90;;;;;;6152025;23;20016;-82
2023/10/17 09:14:16;;;;;;;;;;;10.70;99.90;;;;;;6150911;23;20020;-82
2023/10/17 09:17:16;;;;;;;4.40;2.10;;;10.70;99.90;;;;;;6176875;23;19923;-83
2023/10/17 09:19:46;;;;;;;3.05;2.00;;;10.50;99.90;;;;;;6151440;23;20470;-82
2023/10/17 09:22:15;;;;;;;8.18;2.75;;;10.60;99.90;;;;;;6177316;23;20016;-82
2023/10/17 09:24:45;;;;;;;2.75;1.95;;;10.50;99.90;;;;;;6152609;23;20386;-82
2023/10/17 09:27:14;;;;;;;4.80;2.15;;;10.70;99.90;;;;;;6154053;23;20012;-82
2023/10/17 09:29:51;;;;;;;4.72;2.00;;;10.80;99.90;;;;;;6152579;23;20020;-82
2023/10/17 09:32:34;;;;;;;3.90;1.88;;;10.80;99.90;;;;;;6179217;23;20099;-82
2023/10/17 09:35:15;;;;;;;5.00;1.83;;;10.90;99.90;;;;;;6177032;23;20027;-82
2023/10/17 09:37:51;;;;;;;3.55;1.88;;;11.00;99.90;;;;;;6154631;23;20015;-82
2023/10/17 09:40:29;;;;;;;3.25;1.92;;;11.20;99.90;;;;;;6177939;23;20040;-82
2023/10/17 09:42:56;;;;;;;4.70;1.67;;;11.20;99.90;;;;;;6177679;23;20012;-82
2023/10/17 09:45:22;;;;;;;2.60;1.50;;;11.20;99.90;;;;;;6153994;23;20016;-82
2023/10/17 09:47:53;;;;;;;2.58;1.60;;;11.20;99.90;;;;;;6153226;23;20020;-83
2023/10/17 09:50:21;;;;;;;2.75;1.60;;;11.30;99.90;;;;;;6152737;23;20048;-82
2023/10/17 09:52:51;;;;;;;3.35;1.95;;;11.40;99.90;;;;;;6154055;23;20083;-82
2023/10/17 09:55:18;;;;;;;4.78;1.88;;;11.40;99.90;;;;;;6178951;23;20429;-82
2023/10/17 09:57:50;;;;;;;2.83;1.67;;;11.40;99.90;;;;;;6176805;23;20339;-83
2023/10/17 10:00:40;;;;;;;2.05;1.65;;;11.50;99.90;;;;;;6178310;23;20315;-82
2023/10/17 10:03:08;;;;;;;2.65;1.50;;;11.50;99.90;;;;;;6154302;23;20012;-82
2023/10/17 10:05:34;;;;;;;3.80;1.85;;;11.60;99.90;;;;;;6178532;23;20519;-82
2023/10/17 10:08:27;;;;;;;4.00;1.77;;;11.60;99.90;;;;;;6178738;23;20111;-82
2023/10/17 10:10:53;;;;;;;2.45;1.58;;;11.70;99.90;;;;;;6151149;23;20032;-81
2023/10/17 10:13:20;;;;;;;4.05;1.75;;;11.70;99.90;;;;;;6152048;23;20020;-82
2023/10/17 10:15:50;;;;;;;2.80;1.20;;;11.70;99.90;;;;;;6178883;23;20461;-82
2023/10/17 10:18:17;;;;;;;2.72;1.75;;;11.80;99.90;;;;;;6178715;23;20112;-82
2023/10/17 10:20:56;;;;;;;4.70;1.30;;;11.80;99.90;;;;;;6177445;23;20017;-82
2023/10/17 10:23:36;;;;;;;1.50;1.30;;;11.90;99.90;;;;;;6154291;23;20346;-82
2023/10/17 10:26:19;;;;;;;1.48;1.30;;;11.80;99.90;;;;;;6179159;23;20009;-82
2023/10/17 10:28:49;;;;;;;4.45;1.60;;;12.00;99.90;;;;;;6178057;23;20154;-82
2023/10/17 10:31:21;;;;;;;4.38;1.80;;;12.00;99.90;;;;;;6154045;23;20471;-82
2023/10/17 10:33:51;;;;;;;5.35;1.20;;;12.00;99.90;;;;;;6154095;23;20009;-82
2023/10/17 10:36:18;;;;;;;3.92;1.70;;;12.00;99.90;;;;;;6153805;23;20516;-82
2023/10/17 10:38:45;;;;;;;2.03;1.38;;;12.10;99.90;;;;;;6177745;23;20390;-82
2023/10/17 10:41:18;;;;;;;2.78;1.40;;;12.10;99.90;;;;;;6153279;23;20015;-82
2023/10/17 10:43:44;;;;;;;3.35;1.35;;;12.10;99.90;;;;;;6153326;23;20019;-82
2023/10/17 10:46:15;;;;;;;1.63;1.35;;;12.10;99.90;;;;;;6154062;23;20019;-82
2023/10/17 10:49:07;;;;;;;3.47;1.15;;;12.10;99.90;;;;;;6178937;23;20020;-82
2023/10/17 10:51:33;;;;;;;1.98;1.30;;;12.10;99.90;;;;;;6151738;23;20367;-82
2023/10/17 10:53:59;;;;;;;2.38;1.67;;;12.40;99.90;;;;;;6177134;23;20272;-82
2023/10/17 10:56:25;;;;;;;3.42;1.20;;;12.20;99.90;;;;;;6178435;23;20062;-82
2023/10/17 10:58:55;;;;;;;5.95;1.38;;;12.40;99.90;;;;;;6152651;23;20346;-82
2023/10/17 11:01:27;;;;;;;2.70;1.48;;;12.40;99.90;;;;;;6152861;23;20012;-82
2023/10/17 11:03:53;;;;;;;4.13;1.40;;;12.30;99.90;;;;;;6154043;23;20019;-82
2023/10/17 11:06:24;;;;;;;2.45;1.30;;;12.60;99.90;;;;;;6177695;23;20013;-82
2023/10/17 11:08:51;;;;;;;2.83;1.38;;;12.60;99.90;;;;;;6151971;23;20040;-82
2023/10/17 11:11:17;;;;;;;2.70;1.60;;;12.30;99.90;;;;;;6152903;23;20334;-82
2023/10/17 11:13:54;;;;;;;2.78;1.27;;;12.30;99.90;;;;;;6151742;23;20028;-82
2023/10/17 11:16:25;;;;;;;3.38;1.45;;;12.40;99.90;;;;;;6153138;23;20055;-82
2023/10/17 11:18:51;;;;;;;2.53;1.48;;;12.40;99.90;;;;;;6152889;23;20025;-82
2023/10/17 11:21:20;;;;;;;2.88;1.10;;;12.50;99.90;;;;;;6152734;23;20450;-82
2023/10/17 11:23:54;;;;;;;3.75;1.10;;;12.50;99.90;;;;;;6177005;23;20031;-82
2023/10/17 11:26:27;;;;;;;1.90;1.13;;;12.60;99.90;;;;;;6177223;23;20024;-82
2023/10/17 11:28:53;;;;;;;1.98;1.23;;;12.60;99.90;;;;;;6176134;23;20075;-82
2023/10/17 11:31:22;;;;;;;2.50;1.10;;;12.60;99.90;;;;;;6176885;23;20260;-82
2023/10/17 11:34:14;;;;;;;2.55;1.35;;;12.60;99.90;;;;;;6152264;23;20023;-82
2023/10/17 11:36:48;;;;;;;1.65;1.15;;;12.70;99.90;;;;;;6152787;23;20020;-82
2023/10/17 11:39:18;;;;;;;2.07;1.47;;;12.90;99.90;;;;;;6151148;23;20063;-82
2023/10/17 11:41:57;;;;;;;2.80;1.38;;;12.90;99.90;;;;;;6152213;23;20013;-82
2023/10/17 11:44:25;;;;;;;2.92;1.40;;;13.00;99.90;;;;;;6177225;23;20280;-82
2023/10/17 11:47:05;;;;;;;2.85;1.60;;;13.00;99.90;;;;;;6153052;23;20173;-82
2023/10/17 11:49:35;;;;;;;2.50;1.23;;;13.10;99.90;;;;;;6177169;23;20020;-82
2023/10/17 11:52:04;;;;;;;3.58;1.30;;;13.30;99.90;;;;;;6177998;23;20347;-82
2023/10/17 11:54:30;;;;;;;1.45;1.10;;;13.20;99.90;;;;;;6151675;23;20086;-82
2023/10/17 11:57:11;;;;;;;1.90;1.20;;;13.40;99.90;;;;;;6152707;23;20044;-82
2023/10/17 11:59:37;;;;;;;4.82;1.40;;;13.60;99.90;;;;;;6152337;23;20019;-82
2023/10/17 12:02:03;;;;;;;1.92;1.23;;;13.60;99.90;;;;;;6152950;23;20087;-82
2023/10/17 12:04:29;;;;;;;2.40;1.20;;;13.50;99.90;;;;;;6177316;23;20017;-82
2023/10/17 12:06:55;;;;;;;2.92;1.33;;;13.90;99.90;;;;;;6153228;23;20067;-82
2023/10/17 12:09:23;;;;;;;2.70;1.73;;;13.80;99.90;;;;;;6151699;23;20028;-82
2023/10/17 12:11:51;;;;;;;2.78;1.50;;;13.60;99.90;;;;;;6151929;23;20074;-82
2023/10/17 12:14:21;;;;;;;1.50;1.20;;;13.70;99.90;;;;;;6177277;23;20035;-82
2023/10/17 12:16:48;;;;;;;3.30;1.52;;;13.90;99.90;;;;;;6177565;23;20012;-82
2023/10/17 12:19:18;;;;;;;4.63;1.38;;;13.70;99.90;;;;;;6152326;23;20028;-82
2023/10/17 12:21:48;;;;;;;4.25;1.15;;;14.10;99.90;;;;;;6152847;23;20823;-82
2023/10/17 12:24:16;;;;;;;2.03;1.42;;;13.90;99.90;;;;;;6177103;23;20546;-82
2023/10/17 12:26:45;;;;;;;2.45;1.35;;;14.20;99.90;;;;;;6177383;23;20440;-82
2023/10/17 12:29:12;;;;;;;5.47;1.65;;;14.10;99.90;;;;;;6176803;23;20016;-82
2023/10/17 12:31:39;;;;;;;3.63;1.60;;;14.10;99.90;;;;;;6152031;23;20062;-82
2023/10/17 12:34:07;;;;;;;4.32;1.60;;;14.00;99.90;;;;;;6176993;23;20153;-82
2023/10/17 12:36:35;;;;;;;3.05;1.40;;;14.20;99.90;;;;;;6153252;23;20078;-82
2023/10/17 12:39:02;;;;;;;3.38;1.40;;;14.20;99.90;;;;;;6152550;23;20204;-82
2023/10/17 12:41:30;;;;;;;3.30;1.50;;;14.10;99.90;;;;;;6177245;23;20377;-82
2023/10/17 12:43:55;;;;;;;2.53;1.60;;;14.40;99.90;;;;;;6151925;23;20087;-82
2023/10/17 12:46:21;;;;;;;2.83;1.73;;;14.10;99.90;;;;;;6177411;23;20528;-82
2023/10/17 12:48:47;;;;;;;3.10;1.60;;;14.10;99.90;;;;;;6152381;23;20633;-82
2023/10/17 12:51:12;;;;;;;2.70;1.70;;;14.20;99.90;;;;;;6177230;23;20472;-82
2023/10/17 12:53:41;;;;;;;2.28;1.45;;;14.60;99.90;;;;;;6151824;23;20016;-82
2023/10/17 12:56:10;;;;;;;4.55;1.50;;;14.50;99.90;;;;;;6152635;23;20120;-82
2023/10/17 12:58:36;;;;;;;3.22;1.70;;;14.60;99.90;;;;;;6152939;23;20016;-82
2023/10/17 13:01:06;;;;;;;4.35;1.45;;;14.40;99.90;;;;;;6178136;23;20019;-82
2023/10/17 13:03:33;;;;;;;2.90;1.50;;;14.40;99.90;;;;;;6154340;23;20341;-82
2023/10/17 13:06:00;;;;;;;2.00;1.23;;;14.70;99.90;;;;;;6178549;23;20012;-82
2023/10/17 13:08:26;;;;;;;2.67;1.20;;;14.50;99.90;;;;;;6179638;23;20032;-82
2023/10/17 13:10:57;;;;;;;2.97;1.60;;;14.40;99.90;;;;;;6178217;23;20043;-82
2023/10/17 13:13:26;;;;;;;2.58;1.50;;;14.90;99.90;;;;;;6178417;23;20074;-82
2023/10/17 13:15:54;;;;;;;7.15;1.67;;;15.00;99.90;;;;;;6179270;23;20046;-81
2023/10/17 13:18:20;;;;;;;3.13;1.50;;;15.10;99.90;;;;;;6154344;23;20548;-82
2023/10/17 13:20:48;;;;;;;1.50;1.13;;;15.10;99.90;;;;;;6178901;23;20044;-82
2023/10/17 13:23:18;;;;;;;4.65;1.77;;;14.80;99.90;;;;;;6154519;23;20012;-82
2023/10/17 13:25:44;;;;;;;2.20;1.42;;;15.10;99.90;;;;;;6153246;23;20110;-82
2023/10/17 13:28:10;;;;;;;2.83;1.48;;;14.80;99.90;;;;;;6178048;23;20016;-82
2023/10/17 13:30:36;;;;;;;3.67;1.45;;;15.20;99.90;;;;;;6179337;23;20012;-82
2023/10/17 13:33:02;;;;;;;3.58;1.40;;;15.30;99.90;;;;;;6153748;23;20019;-82
2023/10/17 13:35:28;;;;;;;2.20;1.20;;;15.10;99.90;;;;;;6153712;23;20532;-81
2023/10/17 13:37:55;;;;;;;2.97;1.15;;;15.30;99.90;;;;;;6154993;23;20016;-81
2023/10/17 13:40:23;;;;;;;1.67;1.27;;;15.40;99.90;;;;;;6177642;23;20019;-81
2023/10/17 13:42:50;;;;;;;2.55;1.05;;;15.40;99.90;;;;;;6153668;23;20070;-81
2023/10/17 13:45:23;;;;;;;3.90;1.23;;;15.50;99.90;;;;;;6178924;23;20116;-82
2023/10/17 13:47:49;;;;;;;2.42;0.80;;;15.80;99.90;;;;;;6153383;23;20441;-82
2023/10/17 13:50:18;;;;;;;1.65;0.77;;;17.20;99.90;;;;;;6178744;23;20013;-82
2023/10/17 13:52:48;;;;;;;2.08;0.80;;;17.20;99.90;;;;;;6178710;23;20418;-82
2023/10/17 13:55:17;;;;;;;3.30;0.80;;;18.90;99.90;;;;;;6152971;23;20021;-82
2023/10/17 13:57:43;;;;;;;1.35;0.75;;;19.30;99.90;;;;;;6177816;23;20012;-82
2023/10/17 14:00:19;;;;;;;2.47;0.95;;;19.40;99.90;;;;;;6154207;23;20327;-82
2023/10/17 14:02:49;;;;;;;2.08;1.00;;;19.40;99.90;;;;;;6178731;23;20017;-82
2023/10/17 14:05:16;;;;;;;4.82;1.08;;;19.60;99.90;;;;;;6153737;23;20449;-82
2023/10/17 14:07:43;;;;;;;2.00;1.10;;;19.80;99.90;;;;;;6153902;23;20047;-82
2023/10/17 14:10:11;;;;;;;1.67;0.70;;;20.10;99.90;;;;;;6177557;23;20058;-82
2023/10/17 14:12:40;;;;;;;3.00;0.90;;;20.30;99.90;;;;;;6153197;23;20009;-83
2023/10/17 14:15:10;;;;;;;1.15;0.90;;;20.20;99.90;;;;;;6178724;23;20386;-82
2023/10/17 14:17:36;;;;;;;1.58;0.70;;;19.80;99.90;;;;;;6153833;23;20013;-83
2023/10/17 14:20:28;;;;;;;2.65;1.17;;;21.00;99.90;;;;;;6177940;23;20017;-82
2023/10/17 14:23:11;;;;;;;2.65;1.02;;;20.90;99.90;;;;;;6178725;23;20017;-83
2023/10/17 14:28:22;;;;;;;2.33;0.52;;;21.30;99.90;;;;;;6177437;23;20025;-83
2023/10/17 14:30:49;;;;;;;1.23;0.85;;;21.00;99.90;;;;;;6153407;23;20073;-83
2023/10/17 14:33:14;;;;;;;0.80;0.60;;;20.40;99.90;;;;;;6178044;23;20035;-83
2023/10/17 14:35:43;;;;;;;1.55;1.17;;;20.80;99.90;;;;;;6178331;23;20453;-83
2023/10/17 14:38:10;;;;;;;1.33;1.10;;;20.80;99.90;;;;;;6178825;23;20013;-83
2023/10/17 14:40:35;;;;;;;2.97;0.70;;;20.80;99.90;;;;;;6152839;23;20008;-83
2023/10/17 14:43:02;;;;;;;2.65;0.98;;;20.60;99.90;;;;;;6177445;23;20008;-83
2023/10/17 14:45:28;;;;;;;2.40;0.70;;;20.00;99.90;;;;;;6179250;23;20278;-83
2023/10/17 14:47:59;;;;;;;1.98;0.98;;;18.70;99.90;;;;;;6153574;23;20095;-83
2023/10/17 14:50:26;;;;;;;3.80;0.95;;;18.10;99.90;;;;;;6177989;23;20017;-83
2023/10/17 14:52:52;;;;;;;2.42;0.85;;;17.60;99.90;;;;;;6177030;23;20012;-83
2023/10/17 14:55:23;;;;;;;1.98;0.80;;;16.60;99.90;;;;;;6176852;23;20027;-82
2023/10/17 14:57:49;;;;;;;3.55;0.88;;;16.70;99.90;;;;;;6152510;23;20096;-82
2023/10/17 15:00:16;;;;;;;1.33;0.52;;;16.60;99.90;;;;;;6178142;23;20153;-83
2023/10/17 15:02:44;;;;;;;1.85;0.90;;;16.30;99.90;;;;;;6178165;23;20088;-82
2023/10/17 15:05:13;;;;;;;3.45;0.80;;;16.20;99.90;;;;;;6177587;23;20012;-83
2023/10/17 15:07:40;;;;;;;1.35;0.80;;;16.20;99.90;;;;;;6179229;23;20338;-82
2023/10/17 15:10:11;;;;;;;2.05;0.70;;;16.20;99.90;;;;;;6176669;23;20020;-82
2023/10/17 15:12:41;;;;;;;0.90;0.77;;;17.00;99.90;;;;;;6203416;23;20024;-82
2023/10/17 15:15:10;;;;;;;3.42;0.90;;;18.10;99.90;;;;;;6178506;23;20413;-82
2023/10/17 15:17:47;;;;;;;2.72;0.82;;;18.80;99.90;;;;;;6178236;23;20137;-83
2023/10/17 15:20:13;;;;;;;3.95;1.20;;;19.00;99.90;;;;;;6156340;23;20536;-82
2023/10/17 15:22:41;;;;;;;1.67;0.90;;;19.70;99.90;;;;;;6124271;23;20024;-82
2023/10/17 15:25:12;;;;;;;1.15;0.77;;;20.10;99.90;;;;;;6122880;23;20021;-82
2023/10/17 15:27:44;;;;;;;2.80;1.08;;;20.10;99.90;;;;;;6123557;23;20017;-83
2023/10/17 15:30:12;;;;;;;2.08;0.90;;;20.20;99.90;;;;;;6124049;23;20013;-83
2023/10/17 15:32:40;;;;;;;2.15;0.65;;;19.90;99.90;;;;;;6147814;23;20047;-83
2023/10/17 15:35:13;;;;;;;1.73;0.88;;;18.20;99.90;;;;;;6123669;23;20105;-83
2023/10/17 15:37:46;;;;;;;1.27;0.73;;;17.80;99.90;;;;;;6123990;23;20574;-82